Time;durP1;ratioP1;P1;durP2;ratioP2;P2;SDS_P1;SDS_P2;PMS_P1;PMS_P2;Temp;Humidity;BMP_temperature;BMP_pressure;BME280_temperature;BME280_humidity;BME280_pressure;Samples;Min_cycle;Max_cycle;Signal;HPM_P1;HPM_P2
2022/08/12 00:43:15;;;;;;;;;13.00;13.00;;;;;24.85;37.85;101329.97;5103168;27;45346;-81
2022/08/12 00:48:25;;;;;;;;;13.00;13.00;;;;;24.80;37.95;101333.03;5075714;28;45359;-81
2022/08/12 00:50:51;;;;;;;;;15.50;15.50;;;;;24.80;37.25;101325.03;5108780;27;45505;-81
2022/08/12 00:53:17;;;;;;;;;20.25;17.00;;;;;24.80;36.80;101326.88;5108445;27;45359;-81
2022/08/12 00:55:45;;;;;;;;;19.00;16.25;;;;;24.77;36.49;101330.59;5073881;28;54558;-81
2022/08/12 00:58:13;;;;;;;;;19.25;17.75;;;;;24.71;37.09;101329.28;5074209;28;45423;-81
2022/08/12 01:00:40;;;;;;;;;21.00;16.25;;;;;24.69;36.35;101322.41;5108596;27;45430;-81
2022/08/12 01:03:07;;;;;;;;;16.25;15.75;;;;;24.65;36.88;101326.28;5108265;27;45424;-81
2022/08/12 01:13:47;;;;;;;;;21.00;16.75;;;;;24.57;36.92;101315.38;5078225;28;45392;-82
2022/08/12 01:16:16;;;;;;;;;18.50;16.75;;;;;24.51;37.34;101320.16;5079414;28;45324;-81
2022/08/12 01:18:42;;;;;;;;;16.50;15.00;;;;;24.50;38.24;101323.81;5079385;28;45391;-81
2022/08/12 01:21:25;;;;;;;;;14.50;13.00;;;;;24.50;38.05;101315.00;5078194;28;45500;-81
2022/08/12 01:24:13;;;;;;;;;16.50;15.25;;;;;24.46;37.77;101325.03;5078849;28;45666;-81
2022/08/12 01:26:40;;;;;;;;;17.50;15.25;;;;;24.41;36.55;101321.03;5078555;28;45371;-81
2022/08/12 01:29:06;;;;;;;;;19.00;15.00;;;;;24.43;38.12;101330.59;5079013;27;45378;-81
2022/08/12 01:31:34;;;;;;;;;14.25;12.25;;;;;24.37;36.68;101324.88;5077752;28;45642;-81
2022/08/12 01:34:09;;;;;;;;;15.75;14.50;;;;;24.28;36.59;101329.13;5111851;27;46670;-81
2022/08/12 01:36:46;;;;;;;;;13.75;12.50;;;;;24.20;37.05;101323.53;5111231;27;45524;-81
2022/08/12 01:39:16;;;;;;;;;16.00;16.00;;;;;24.12;36.84;101322.31;5111830;27;45379;-81
2022/08/12 01:41:49;;;;;;;;;15.75;14.25;;;;;24.05;36.91;101314.94;5078402;28;45300;-81
2022/08/12 01:44:15;;;;;;;;;14.75;14.50;;;;;24.01;37.78;101316.97;5111651;27;45396;-81
2022/08/12 01:46:49;;;;;;;;;17.50;16.75;;;;;24.02;36.60;101318.69;5111620;27;45306;-81
2022/08/12 01:49:21;;;;;;;;;16.00;13.25;;;;;23.98;36.75;101316.34;5078592;28;45372;-81
2022/08/12 01:51:55;;;;;;;;;15.00;14.75;;;;;23.99;37.59;101321.56;5111484;27;45406;-81
2022/08/12 01:54:21;;;;;;;;;15.25;14.50;;;;;24.00;37.55;101312.63;5111575;27;46445;-81
2022/08/12 01:56:50;;;;;;;;;14.75;14.25;;;;;24.01;38.48;101318.78;5078317;28;45402;-81
2022/08/12 02:02:17;;;;;;;;;16.00;13.75;;;;;24.00;39.17;101312.63;5106216;27;45324;-81
2022/08/12 02:13:31;;;;;;;;;15.25;14.00;;;;;23.83;38.74;101302.44;5078181;28;45233;-81
2022/08/12 02:16:29;;;;;;;;;15.00;14.00;;;;;23.73;39.32;101303.09;5077750;28;46465;-81
2022/08/12 02:19:27;;;;;;;;;18.25;15.00;;;;;23.68;38.84;101304.41;5073913;28;45478;-81
2022/08/12 02:22:11;;;;;;;;;17.75;17.50;;;;;23.60;38.94;101302.31;5076878;28;45360;-81
2022/08/12 02:24:38;;;;;;;;;15.75;15.00;;;;;23.55;39.78;101296.50;5077617;28;46102;-81
2022/08/12 02:27:07;;;;;;;;;17.00;15.00;;;;;23.52;39.65;101294.94;5076325;28;46081;-81
2022/08/12 02:29:33;;;;;;;;;14.25;14.25;;;;;23.53;40.21;101293.13;5076435;28;45296;-81
2022/08/12 02:31:59;;;;;;;;;15.25;14.00;;;;;23.51;40.50;101290.59;5076511;28;45347;-81
2022/08/12 02:34:25;;;;;;;;;14.00;13.75;;;;;23.50;40.56;101288.91;5110543;27;45278;-81
2022/08/12 02:36:54;;;;;;;;;20.75;15.25;;;;;23.48;39.96;101293.47;5077454;28;46559;-81
2022/08/12 02:39:23;;;;;;;;;17.50;15.25;;;;;23.45;39.78;101292.84;5077140;28;45332;-81
2022/08/12 02:41:49;;;;;;;;;14.25;14.25;;;;;23.39;40.01;101295.00;5077771;28;45308;-81
2022/08/12 02:44:17;;;;;;;;;20.75;15.00;;;;;23.35;39.64;101287.38;5110412;27;45530;-81
2022/08/12 02:46:49;;;;;;;;;15.50;14.00;;;;;23.30;40.24;101285.06;5076511;28;68029;-81
2022/08/12 02:49:43;;;;;;;;;17.50;15.00;;;;;23.28;39.80;101296.78;5077234;28;45903;-81
2022/08/12 02:52:09;;;;;;;;;16.50;14.25;;;;;23.25;40.78;101292.50;5075959;27;45300;-81
2022/08/12 02:54:36;;;;;;;;;20.00;16.50;;;;;23.19;39.72;101293.81;5075942;28;68667;-81
2022/08/12 02:57:01;;;;;;;;;14.75;14.00;;;;;23.17;40.88;101289.59;5077184;28;46353;-81
2022/08/12 02:59:28;;;;;;;;;15.75;15.75;;;;;23.11;39.68;101293.53;5077258;28;45446;-81
2022/08/12 03:01:55;;;;;;;;;14.25;14.00;;;;;23.08;40.07;101296.41;5110098;27;45418;-81
2022/08/12 03:04:31;;;;;;;;;16.25;13.75;;;;;23.06;39.40;101294.84;5077162;27;45299;-81
2022/08/12 03:07:29;;;;;;;;;16.75;14.00;;;;;23.05;40.04;101293.13;5075253;28;45684;-80
2022/08/12 03:09:56;;;;;;;;;17.75;16.00;;;;;23.04;40.29;101294.94;5076674;28;45482;-81
2022/08/12 03:12:23;;;;;;;;;18.75;14.50;;;;;22.95;39.73;101292.94;5077075;28;45347;-81
2022/08/12 03:14:50;;;;;;;;;18.00;16.50;;;;;22.86;39.70;101293.59;5075796;28;45574;-81
2022/08/12 03:17:29;;;;;;;;;18.75;18.00;;;;;22.77;40.23;101290.66;5075514;28;46529;-81
2022/08/12 03:19:55;;;;;;;;;16.00;14.75;;;;;22.67;40.27;101294.91;5075732;28;45838;-81
2022/08/12 03:22:22;;;;;;;;;14.75;14.00;;;;;22.62;40.42;101297.03;5075172;28;45437;-81
2022/08/12 03:24:48;;;;;;;;;20.25;15.50;;;;;22.58;40.53;101303.50;5075666;28;45503;-81
2022/08/12 03:27:15;;;;;;;;;16.25;14.50;;;;;22.51;40.07;101295.16;5057777;28;45391;-81
2022/08/12 03:29:43;;;;;;;;;15.00;15.00;;;;;22.44;39.99;101295.72;5058444;28;45373;-81
2022/08/12 03:32:09;;;;;;;;;17.75;14.75;;;;;22.36;40.93;101299.75;5058542;28;45352;-81
2022/08/12 03:34:35;;;;;;;;;19.00;15.25;;;;;22.28;40.98;101306.53;5076729;28;45429;-82
2022/08/12 03:37:04;;;;;;;;;19.75;15.50;;;;;22.19;41.16;101306.19;5076420;28;46373;-81
2022/08/12 03:42:15;;;;;;;;;17.75;15.50;;;;;22.19;40.87;101305.31;5076838;28;45463;-81
2022/08/12 04:01:41;;;;;;;;;14.75;13.75;;;;;22.22;41.58;101295.34;5076447;28;45301;-81
2022/08/12 04:04:10;;;;;;;;;15.00;15.00;;;;;22.26;42.03;101289.88;5076054;28;56815;-81
2022/08/12 04:06:44;;;;;;;;;17.25;15.00;;;;;22.24;41.13;101289.94;5076230;28;45321;-81
2022/08/12 04:09:10;;;;;;;;;14.00;13.25;;;;;22.24;41.28;101293.44;5076260;28;46056;-81
2022/08/12 04:14:25;;;;;;;;;18.00;15.00;;;;;22.16;42.52;101290.47;5061106;28;45369;-81
2022/08/12 04:16:51;;;;;;;;;17.75;13.50;;;;;22.12;41.76;101288.13;5076560;28;45289;-81
2022/08/12 04:19:18;;;;;;;;;13.75;12.75;;;;;22.10;42.24;101290.03;5058078;28;45374;-81
2022/08/12 04:21:44;;;;;;;;;16.25;15.50;;;;;22.06;41.59;101291.22;5076059;28;45926;-81
2022/08/12 04:24:10;;;;;;;;;16.50;15.25;;;;;22.02;41.31;101294.06;5076324;28;45453;-81
2022/08/12 04:26:35;;;;;;;;;16.75;15.00;;;;;22.01;41.74;101294.19;5069466;28;45336;-81
2022/08/12 04:29:02;;;;;;;;;16.75;14.00;;;;;22.02;42.55;101290.56;5074810;28;45511;-81
2022/08/12 04:31:30;;;;;;;;;17.75;15.75;;;;;22.03;43.08;101287.81;5076034;27;45854;-81
2022/08/12 04:33:56;;;;;;;;;15.75;15.75;;;;;22.03;42.11;101287.81;5075764;28;45311;-81
2022/08/12 04:36:22;;;;;;;;;18.00;15.50;;;;;22.02;42.04;101295.88;5109008;27;45292;-81
2022/08/12 04:38:48;;;;;;;;;19.00;15.25;;;;;22.02;43.15;101302.00;5077366;28;74008;-81
2022/08/12 04:41:14;;;;;;;;;15.00;14.50;;;;;21.98;42.78;101297.88;5112568;27;45432;-81
2022/08/12 04:43:40;;;;;;;;;19.75;16.00;;;;;21.92;42.13;101294.81;5079657;28;45304;-81
2022/08/12 04:46:06;;;;;;;;;14.25;12.50;;;;;21.87;42.55;101292.47;5078645;28;70483;-81
2022/08/12 04:48:31;;;;;;;;;19.00;16.00;;;;;21.87;42.71;101292.47;5079095;28;45729;-81
2022/08/12 04:50:57;;;;;;;;;18.25;16.25;;;;;21.88;42.04;101294.19;5078449;28;73404;-81
2022/08/12 04:53:22;;;;;;;;;19.25;13.75;;;;;21.88;42.59;101291.53;5111622;27;63261;-81
2022/08/12 04:55:48;;;;;;;;;20.50;16.00;;;;;21.87;41.87;101288.97;5079322;28;67283;-81
2022/08/12 04:58:13;;;;;;;;;18.75;14.00;;;;;21.87;42.13;101299.56;5079188;28;45396;-81
2022/08/12 05:00:39;;;;;;;;;16.00;15.00;;;;;21.85;42.07;101299.66;5076934;28;73103;-81
2022/08/12 05:03:06;;;;;;;;;17.75;15.25;;;;;21.80;41.91;101292.06;5112098;27;45334;-81
2022/08/12 05:05:31;;;;;;;;;14.25;14.25;;;;;21.73;41.95;101297.84;5077770;27;45319;-81
2022/08/12 05:07:57;;;;;;;;;18.50;15.25;;;;;21.70;42.25;101296.25;5077747;28;45349;-81
2022/08/12 05:10:23;;;;;;;;;16.50;15.50;;;;;21.72;42.56;101297.00;5077866;28;45362;-81
2022/08/12 05:12:56;;;;;;;;;15.25;15.00;;;;;21.75;42.98;101298.59;5079229;28;45281;-81
2022/08/12 05:15:22;;;;;;;;;17.25;15.25;;;;;21.76;42.78;101302.94;5077889;28;45343;-81
2022/08/12 05:17:47;;;;;;;;;15.00;13.75;;;;;21.78;43.17;101299.22;5078572;27;46009;-81
2022/08/12 05:20:19;;;;;;;;;14.25;13.00;;;;;21.80;42.55;101305.31;5078749;28;47934;-81
2022/08/12 05:22:44;;;;;;;;;20.00;18.00;;;;;21.81;43.06;101312.28;5078947;27;45405;-81
2022/08/12 05:25:14;;;;;;;;;17.00;15.00;;;;;21.83;43.19;101310.38;5077903;28;67224;-81
2022/08/12 05:27:40;;;;;;;;;16.00;16.00;;;;;21.82;42.84;101307.81;5078536;28;46563;-81
2022/08/12 05:30:06;;;;;;;;;16.00;14.00;;;;;21.84;42.76;101313.84;5078802;28;45370;-81
2022/08/12 05:32:32;;;;;;;;;16.25;16.25;;;;;21.81;42.51;101320.22;5063247;28;45431;-81
2022/08/12 05:34:58;;;;;;;;;15.75;13.25;;;;;21.78;42.43;101316.94;5058344;28;45451;-81
2022/08/12 05:37:23;;;;;;;;;17.25;15.00;;;;;21.78;43.01;101319.59;5040348;28;45346;-81
2022/08/12 05:39:49;;;;;;;;;15.00;12.75;;;;;21.78;42.86;101306.34;5057292;28;71112;-81
2022/08/12 05:42:14;;;;;;;;;15.00;15.00;;;;;21.85;43.58;101307.63;5057407;28;67718;-81
2022/08/12 05:44:40;;;;;;;;;16.50;15.00;;;;;21.87;42.79;101312.81;5058407;28;45349;-81
2022/08/12 05:47:05;;;;;;;;;19.50;18.25;;;;;21.87;43.36;101312.81;5056596;28;75893;-81
2022/08/12 05:49:33;;;;;;;;;16.00;16.00;;;;;21.83;43.05;101320.13;5057426;28;45289;-81
2022/08/12 05:51:59;;;;;;;;;19.75;16.00;;;;;21.83;43.46;101323.63;5040952;28;45400;-81
2022/08/12 05:54:24;;;;;;;;;15.75;15.75;;;;;21.79;42.62;101321.28;5060012;28;45461;-81
2022/08/12 05:56:50;;;;;;;;;15.75;15.00;;;;;21.76;43.01;101324.13;5058382;28;46082;-81
2022/08/12 05:59:16;;;;;;;;;15.75;15.50;;;;;21.77;42.48;101326.69;5058169;28;45827;-81
2022/08/12 06:01:41;;;;;;;;;17.25;16.75;;;;;21.79;42.55;101337.19;5057196;28;63128;-81
2022/08/12 06:04:08;;;;;;;;;17.50;15.50;;;;;21.83;43.54;101331.56;5060207;28;70409;-81
2022/08/12 06:06:37;;;;;;;;;18.25;16.25;;;;;21.90;43.74;101323.19;5078345;28;45361;-81
2022/08/12 06:09:03;;;;;;;;;13.75;13.75;;;;;22.00;44.09;101321.63;5078205;28;45278;-81
2022/08/12 06:11:28;;;;;;;;;12.25;12.25;;;;;22.06;44.18;101318.56;5060230;28;45640;-81
2022/08/12 06:13:57;;;;;;;;;16.00;16.00;;;;;22.08;42.68;101324.59;5077980;28;55973;-81
2022/08/12 06:16:23;;;;;;;;;17.75;14.00;;;;;22.12;44.58;101323.47;5077853;28;46543;-81
2022/08/12 06:18:49;;;;;;;;;20.25;18.00;;;;;22.13;43.01;101324.31;5059981;28;45941;-81
2022/08/12 06:21:17;;;;;;;;;17.75;15.25;;;;;22.15;44.42;101322.41;5078269;28;45370;-81
2022/08/12 06:23:44;;;;;;;;;17.50;16.00;;;;;22.20;44.41;101326.44;5059964;28;45505;-81
2022/08/12 06:26:14;;;;;;;;;17.25;15.50;;;;;22.24;42.56;101327.91;5077802;28;46114;-81
2022/08/12 06:28:43;;;;;;;;;21.50;16.25;;;;;22.28;42.66;101325.94;5078120;28;45383;-81
2022/08/12 06:31:15;;;;;;;;;16.00;14.75;;;;;22.32;43.41;101318.59;5074283;28;45371;-81
2022/08/12 06:33:43;;;;;;;;;17.75;14.50;;;;;22.32;42.83;101318.59;5057677;28;45445;-81
2022/08/12 06:36:09;;;;;;;;;20.25;15.00;;;;;22.35;42.38;101316.59;5057513;28;45483;-81
2022/08/12 06:38:35;;;;;;;;;17.25;13.50;;;;;22.39;41.76;101318.06;5057536;28;45370;-81
2022/08/12 06:43:55;;;;;;;;;14.00;14.00;;;;;22.57;42.15;101323.91;4995172;28;45477;-81
2022/08/12 06:46:22;;;;;;;;;17.50;14.00;;;;;22.64;41.27;101318.16;4994856;28;45416;-81
2022/08/12 06:48:48;;;;;;;;;14.00;13.50;;;;;22.70;41.28;101326.53;4995044;28;45328;-81
2022/08/12 06:51:14;;;;;;;;;14.50;12.25;;;;;22.78;39.76;101318.03;4995423;28;45462;-81
2022/08/12 06:53:42;;;;;;;;;12.50;11.50;;;;;22.88;39.20;101334.13;4978787;28;45381;-81
2022/08/12 06:56:08;;;;;;;;;14.25;11.50;;;;;22.96;39.04;101329.16;4995078;28;45519;-81
2022/08/12 06:58:38;;;;;;;;;13.50;10.25;;;;;23.05;39.37;101327.66;4995161;28;45459;-81
2022/08/12 07:01:05;;;;;;;;;14.75;13.00;;;;;23.12;38.83;101323.59;4993790;28;45340;-81
2022/08/12 07:03:30;;;;;;;;;12.00;10.75;;;;;23.18;38.91;101321.34;4994967;28;45338;-81
2022/08/12 07:06:00;;;;;;;;;12.75;11.25;;;;;23.25;39.06;101324.38;4994657;28;45977;-81
2022/08/12 07:08:28;;;;;;;;;11.50;9.75;;;;;23.32;38.12;101322.97;4994959;28;45663;-81
2022/08/12 07:10:58;;;;;;;;;12.75;11.25;;;;;23.38;37.93;101317.22;4995061;28;45515;-81
2022/08/12 07:13:37;;;;;;;;;13.75;12.75;;;;;23.47;37.34;101314.84;4978741;28;45546;-81
2022/08/12 07:16:03;;;;;;;;;14.00;11.25;;;;;23.56;37.60;101316.81;4994753;28;46155;-81
2022/08/12 07:18:31;;;;;;;;;13.00;11.75;;;;;23.66;37.30;101319.63;4994762;28;45780;-81
2022/08/12 07:20:59;;;;;;;;;15.75;12.75;;;;;23.75;36.93;101317.13;5026513;28;45392;-81
2022/08/12 07:23:26;;;;;;;;;12.75;12.50;;;;;23.84;37.98;101309.44;5036465;28;45393;-80
2022/08/12 07:25:53;;;;;;;;;12.75;11.00;;;;;23.92;38.31;101305.25;5044820;28;45664;-81
2022/08/12 07:28:24;;;;;;;;;14.50;12.00;;;;;24.01;36.20;101309.00;5056225;28;45862;-81
2022/08/12 07:30:51;;;;;;;;;11.00;10.75;;;;;24.10;36.35;101307.44;5057294;28;45354;-81
2022/08/12 07:33:22;;;;;;;;;12.00;10.50;;;;;24.16;36.25;101309.63;5075548;28;45572;-81
2022/08/12 07:35:48;;;;;;;;;14.50;12.00;;;;;24.24;36.01;101303.75;5076529;28;45617;-81
2022/08/12 07:38:23;;;;;;;;;12.50;11.00;;;;;24.33;36.58;101305.66;5076651;28;45238;-81
2022/08/12 07:40:50;;;;;;;;;11.75;10.75;;;;;24.40;35.77;101303.38;5076899;28;45541;-81
2022/08/12 07:43:16;;;;;;;;;13.25;10.50;;;;;24.46;35.73;101303.75;5076548;28;45393;-81
2022/08/12 07:45:41;;;;;;;;;12.75;10.75;;;;;24.54;35.31;101300.50;5075540;28;73100;-81
2022/08/12 07:48:07;;;;;;;;;12.50;9.50;;;;;24.65;35.13;101297.00;5075417;28;73298;-81
2022/08/12 07:50:32;;;;;;;;;10.50;9.00;;;;;24.74;34.75;101296.25;5076746;28;45450;-81
2022/08/12 07:52:59;;;;;;;;;10.75;10.50;;;;;24.84;34.46;101296.38;5076499;28;45425;-81
2022/08/12 07:55:25;;;;;;;;;10.75;10.75;;;;;24.94;33.84;101302.63;5076329;28;46490;-81
2022/08/12 07:57:56;;;;;;;;;10.50;9.75;;;;;25.04;33.63;101292.09;5075430;28;62131;-81
2022/08/12 08:00:22;;;;;;;;;9.75;9.75;;;;;25.14;33.75;101295.69;5075269;28;45438;-81
2022/08/12 08:02:48;;;;;;;;;12.50;10.50;;;;;25.24;33.40;101295.78;5109415;27;45351;-81
2022/08/12 08:05:14;;;;;;;;;12.00;10.00;;;;;25.34;33.20;101295.91;5076054;27;46334;-81
2022/08/12 08:07:41;;;;;;;;;10.00;10.00;;;;;25.43;32.75;101297.81;5074999;28;45405;-81
2022/08/12 08:10:09;;;;;;;;;11.00;11.00;;;;;25.52;32.64;101291.72;5076553;27;45336;-81
2022/08/12 08:12:53;;;;;;;;;6.50;5.00;;;;;25.60;32.77;101294.56;5074299;28;45557;-81
2022/08/12 08:15:21;;;;;;;;;12.00;12.00;;;;;25.71;32.49;101292.84;5074783;28;46118;-81
2022/08/12 08:18:05;;;;;;;;;10.25;9.00;;;;;25.80;32.39;101298.22;5074826;28;45466;-81
2022/08/12 08:20:34;;;;;;;;;8.50;8.00;;;;;25.90;31.79;101292.94;5076189;28;45438;-81
2022/08/12 08:23:06;;;;;;;;;11.00;10.00;;;;;26.03;31.54;101306.09;5076424;27;45346;-81
2022/08/12 08:25:32;;;;;;;;;12.00;10.25;;;;;26.10;31.59;101296.59;5075217;28;46354;-81
2022/08/12 08:28:00;;;;;;;;;8.50;8.00;;;;;26.20;31.27;101300.16;5075891;27;45341;-82
2022/08/12 08:30:27;;;;;;;;;10.75;9.75;;;;;26.30;31.55;101302.91;5076406;28;45409;-81
2022/08/12 08:32:52;;;;;;;;;11.25;10.00;;;;;26.40;30.63;101306.44;5076323;28;45303;-82
2022/08/12 08:35:18;;;;;;;;;8.50;8.50;;;;;26.52;30.39;101307.19;5076053;28;45327;-81
2022/08/12 08:37:45;;;;;;;;;10.75;7.25;;;;;26.63;29.91;101295.59;5076477;28;45553;-81
2022/08/12 08:42:55;;;;;;;;;9.25;8.00;;;;;26.86;29.50;101296.25;5076271;28;45305;-81
2022/08/12 08:45:20;;;;;;;;;8.00;7.50;;;;;26.97;29.23;101293.44;5075184;28;67882;-81
2022/08/12 08:47:46;;;;;;;;;10.50;8.00;;;;;27.09;28.86;101298.66;5075867;28;45398;-81
2022/08/12 08:50:15;;;;;;;;;7.75;7.75;;;;;27.20;29.27;101301.19;5075986;28;45344;-82
2022/08/12 08:52:41;;;;;;;;;8.50;8.50;;;;;27.30;28.51;101299.41;5076154;28;45299;-81
2022/08/12 08:55:08;;;;;;;;;7.75;7.75;;;;;27.39;28.36;101305.75;5075457;28;45334;-81
2022/08/12 08:57:33;;;;;;;;;9.25;8.00;;;;;27.49;27.90;101300.38;5075927;28;45166;-81
2022/08/12 09:00:00;;;;;;;;;7.75;7.75;;;;;27.59;28.11;101304.75;5075263;28;69315;-81
2022/08/12 09:02:25;;;;;;;;;8.00;6.00;;;;;27.68;27.47;101300.38;5075838;28;45263;-81
2022/08/12 09:04:51;;;;;;;;;7.00;6.50;;;;;27.78;27.61;101297.69;5075492;27;46727;-81
2022/08/12 09:07:17;;;;;;;;;7.00;7.00;;;;;27.87;27.47;101298.66;5075207;27;54768;-81
2022/08/12 09:09:42;;;;;;;;;8.50;7.00;;;;;27.96;26.86;101298.66;5074084;28;45399;-81
2022/08/12 09:14:53;;;;;;;;;6.25;6.25;;;;;28.15;26.86;101302.28;5075490;28;45788;-81
2022/08/12 09:17:21;;;;;;;;;6.50;6.00;;;;;28.22;26.42;101307.91;5075527;27;45815;-81
2022/08/12 09:19:46;;;;;;;;;9.25;6.50;;;;;28.30;26.20;101297.31;5074447;28;45322;-81
2022/08/12 09:22:12;;;;;;;;;10.50;7.00;;;;;28.38;25.69;101295.59;5075242;27;45545;-81
2022/08/12 09:24:38;;;;;;;;;11.75;7.25;;;;;28.47;25.79;101293.88;5074650;27;73368;-81
2022/08/12 09:27:05;;;;;;;;;7.00;7.00;;;;;28.52;25.65;101291.59;5078791;27;45268;-81
2022/08/12 09:29:32;;;;;;;;;7.00;6.25;;;;;28.59;25.37;101291.84;5078891;28;45324;-81
2022/08/12 09:31:58;;;;;;;;;8.25;7.25;;;;;28.65;25.64;101283.22;5068524;28;45596;-81
2022/08/12 09:34:26;;;;;;;;;5.50;5.50;;;;;28.73;25.33;101285.16;5058606;28;45432;-81
2022/08/12 09:36:52;;;;;;;;;11.00;7.50;;;;;28.81;25.51;101279.03;5058373;28;45375;-81
2022/08/12 09:39:17;;;;;;;;;8.00;7.00;;;;;28.87;24.71;101273.94;5040196;28;45538;-81
2022/08/12 09:41:44;;;;;;;;;9.50;8.50;;;;;28.96;24.99;101286.41;5058262;28;45534;-81
2022/08/12 09:46:55;;;;;;;;;7.25;6.25;;;;;29.13;24.39;101275.88;5058496;28;45365;-81
2022/08/12 09:49:21;;;;;;;;;6.50;5.75;;;;;29.22;23.84;101266.94;5040020;28;45317;-81
2022/08/12 09:51:47;;;;;;;;;6.00;5.75;;;;;29.32;23.73;101273.03;5040096;28;45559;-81
2022/08/12 09:54:15;;;;;;;;;9.00;7.00;;;;;29.42;24.03;101267.63;5057621;28;45454;-82
2022/08/12 09:56:42;;;;;;;;;5.75;5.75;;;;;29.51;24.02;101273.88;5058087;28;45360;-81
2022/08/12 09:59:08;;;;;;;;;5.00;5.00;;;;;29.61;24.01;101266.59;5058172;28;45351;-81
2022/08/12 10:01:37;;;;;;;;;6.75;6.00;;;;;29.70;23.61;101270.19;5057906;28;45345;-81
2022/08/12 10:04:09;;;;;;;;;6.50;6.50;;;;;29.80;24.20;101256.69;5060053;28;46566;-81
2022/08/12 10:06:37;;;;;;;;;7.75;6.00;;;;;29.92;23.99;101271.50;5078129;28;45410;-81
2022/08/12 10:09:05;;;;;;;;;5.25;5.25;;;;;30.01;23.75;101258.97;5059779;28;45374;-81
2022/08/12 10:14:15;;;;;;;;;6.25;5.50;;;;;30.19;23.46;101250.88;5077851;28;45730;-81
2022/08/12 10:16:43;;;;;;;;;6.00;6.00;;;;;30.27;23.63;101256.25;5077771;28;45316;-82
2022/08/12 10:19:09;;;;;;;;;7.25;6.00;;;;;30.36;23.22;101252.63;5078013;28;45314;-82
2022/08/12 10:21:36;;;;;;;;;5.00;5.00;;;;;30.44;23.17;101241.06;5077974;28;45330;-81
2022/08/12 10:24:07;;;;;;;;;5.00;5.00;;;;;30.53;22.97;101240.09;5059199;28;46366;-81
2022/08/12 10:29:38;;;;;;;;;4.75;4.75;;;;;30.63;21.47;101237.31;5077833;28;45194;-81
2022/08/12 10:32:05;;;;;;;;;6.00;5.00;;;;;30.69;21.80;101239.31;5066839;28;45211;-81
2022/08/12 10:34:30;;;;;;;;;6.00;5.00;;;;;30.77;21.52;101251.94;5057366;28;45536;-81
2022/08/12 10:36:58;;;;;;;;;5.00;4.50;;;;;30.84;21.73;101228.78;5056739;28;46783;-81
2022/08/12 10:39:31;;;;;;;;;5.00;4.50;;;;;30.91;21.42;101240.56;5039544;28;45289;-81
2022/08/12 10:44:41;;;;;;;;;5.25;4.00;;;;;30.98;20.81;101228.16;5042145;28;45886;-81
2022/08/12 10:47:07;;;;;;;;;5.00;5.00;;;;;31.03;21.18;101231.16;5039224;28;45379;-81
2022/08/12 10:49:33;;;;;;;;;5.00;4.75;;;;;31.13;20.87;101225.66;5056680;28;58010;-81
2022/08/12 10:52:01;;;;;;;;;3.50;3.00;;;;;31.22;21.50;101237.22;5057437;28;45475;-81
2022/08/12 10:54:27;;;;;;;;;6.50;5.50;;;;;31.32;20.94;101215.56;5058920;28;45419;-82
2022/08/12 10:56:56;;;;;;;;;4.75;4.00;;;;;31.41;21.41;101214.53;5039494;28;45411;-81
2022/08/12 10:59:23;;;;;;;;;8.00;6.00;;;;;31.54;21.04;101219.44;5057721;28;45447;-81
2022/08/12 11:01:50;;;;;;;;;6.00;5.75;;;;;31.67;20.73;101217.06;5057601;28;45378;-81
2022/08/12 11:04:15;;;;;;;;;7.00;5.50;;;;;31.77;20.92;101206.09;5061313;28;46441;-81
2022/08/12 11:06:49;;;;;;;;;4.75;4.75;;;;;31.83;20.41;101189.25;5076880;28;55985;-82
2022/08/12 11:09:30;;;;;;;;;5.00;5.00;;;;;31.93;21.04;101207.91;5060146;28;45431;-82
2022/08/12 11:12:00;;;;;;;;;6.50;5.00;;;;;32.05;20.86;101203.00;5077511;28;45377;-82
2022/08/12 11:14:32;;;;;;;;;4.25;4.00;;;;;32.17;20.70;101197.06;5059271;28;45482;-81
2022/08/12 11:17:06;;;;;;;;;7.00;6.00;;;;;32.36;20.65;101182.31;5060303;28;45358;-81
2022/08/12 11:19:33;;;;;;;;;7.25;5.00;;;;;32.48;20.19;101185.44;5077511;28;45352;-81
2022/08/12 11:21:58;;;;;;;;;6.00;4.00;;;;;32.62;20.85;101183.06;5076996;28;45551;-81
2022/08/12 11:24:24;;;;;;;;;7.00;6.00;;;;;32.73;19.92;101185.31;5077344;28;46603;-81
2022/08/12 11:26:51;;;;;;;;;7.00;7.00;;;;;32.79;19.19;101184.59;5077143;28;45385;-82
2022/08/12 11:29:27;;;;;;;;;9.25;7.00;;;;;32.89;20.29;101176.25;5059112;28;45335;-81
2022/08/12 11:31:53;;;;;;;;;7.00;5.00;;;;;33.04;20.44;101165.53;5049832;28;45427;-81
2022/08/12 11:34:19;;;;;;;;;6.00;5.00;;;;;33.23;20.25;101153.41;5056543;28;46494;-81
2022/08/12 11:36:52;;;;;;;;;5.00;5.00;;;;;33.44;19.16;101156.22;5056109;28;45332;-82
2022/08/12 11:39:18;;;;;;;;;4.25;4.25;;;;;33.59;18.71;101163.50;5056929;28;45442;-82
2022/08/12 11:41:44;;;;;;;;;4.75;4.25;;;;;33.86;18.79;101156.63;5056714;28;45155;-81
2022/08/12 11:44:09;;;;;;;;;6.50;6.00;;;;;34.23;18.93;101152.09;5056563;28;45379;-82
2022/08/12 11:46:35;;;;;;;;;4.75;4.75;;;;;34.84;19.16;101152.53;5056452;28;45415;-81
2022/08/12 11:49:01;;;;;;;;;6.00;5.00;;;;;37.66;18.12;101149.75;5055551;28;45327;-81
2022/08/12 11:51:26;;;;;;;;;6.25;5.00;;;;;41.32;15.59;101158.69;5055752;28;60970;-82
2022/08/12 11:53:51;;;;;;;;;4.50;4.00;;;;;44.29;13.17;101164.63;5055341;28;72585;-81
2022/08/12 11:56:17;;;;;;;;;5.75;4.00;;;;;46.45;10.78;101165.78;5055275;28;72306;-82
2022/08/12 11:58:42;;;;;;;;;4.00;4.00;;;;;48.27;10.84;101181.19;5055658;28;66449;-82
2022/08/12 12:01:07;;;;;;;;;8.75;6.00;;;;;49.62;9.21;101166.94;5038219;28;45458;-82
2022/08/12 12:03:33;;;;;;;;;5.25;5.25;;;;;50.73;8.42;101157.19;5054904;28;73853;-82
2022/08/12 12:05:58;;;;;;;;;6.25;5.25;;;;;51.81;7.58;101154.97;5073508;28;71071;-82
2022/08/12 12:08:24;;;;;;;;;4.50;4.50;;;;;52.81;7.76;101163.03;5075431;28;65827;-82
2022/08/12 12:10:50;;;;;;;;;3.75;3.25;;;;;53.58;6.73;101158.03;5076566;28;45491;-82
2022/08/12 12:13:17;;;;;;;;;9.25;5.50;;;;;54.14;6.19;101155.41;5075863;28;45344;-82
2022/08/12 12:15:42;;;;;;;;;5.25;5.00;;;;;54.54;6.48;101151.59;5058218;28;45798;-82
2022/08/12 12:18:29;;;;;;;;;4.25;4.25;;;;;55.34;6.30;101152.81;5076146;28;45371;-82
2022/08/12 12:20:56;;;;;;;;;4.00;4.00;;;;;55.90;5.74;101147.03;5076232;28;45355;-82
2022/08/12 12:23:22;;;;;;;;;5.00;5.00;;;;;56.26;5.64;101149.09;5057786;28;46602;-82
2022/08/12 12:25:47;;;;;;;;;5.00;5.00;;;;;56.63;5.42;101149.19;5075771;28;45405;-82
2022/08/12 12:28:13;;;;;;;;;4.00;4.00;;;;;57.10;5.36;101142.31;5076167;28;45382;-82
2022/08/12 12:30:39;;;;;;;;;5.25;5.25;;;;;57.11;5.36;101138.38;5076187;28;45418;-82
2022/08/12 12:33:05;;;;;;;;;5.00;4.00;;;;;57.15;4.60;101145.69;5056022;28;46303;-82
2022/08/12 12:35:31;;;;;;;;;3.25;3.25;;;;;57.11;4.71;101149.56;5055760;28;45363;-82
2022/08/12 12:37:58;;;;;;;;;3.00;2.75;;;;;56.99;4.60;101139.16;5055741;28;45318;-83
2022/08/12 12:40:25;;;;;;;;;5.25;5.25;;;;;56.53;4.33;101144.06;5055816;28;45346;-83
2022/08/12 12:42:50;;;;;;;;;4.75;4.25;;;;;56.24;4.49;101140.25;5037490;28;45657;-83
2022/08/12 12:45:16;;;;;;;;;6.00;4.75;;;;;56.01;4.93;101132.28;5055674;28;45308;-83
2022/08/12 12:48:12;;;;;;;;;3.50;3.50;;;;;55.97;4.84;101117.38;5037389;28;45415;-83
2022/08/12 12:50:38;;;;;;;;;4.00;4.00;;;;;55.82;4.60;101123.59;5015337;28;45369;-80
2022/08/12 12:53:05;;;;;;;;;5.50;5.50;;;;;55.60;4.58;101119.19;5037291;28;46795;-80
2022/08/12 12:55:34;;;;;;;;;4.25;4.00;;;;;55.53;4.24;101116.13;5037432;28;45831;-81
2022/08/12 12:58:03;;;;;;;;;5.00;4.25;;;;;55.36;4.43;101114.28;5055525;28;45237;-81
2022/08/12 13:00:30;;;;;;;;;5.00;5.00;;;;;54.97;4.64;101105.19;5057405;28;45508;-81
2022/08/12 13:02:55;;;;;;;;;5.25;5.25;;;;;54.67;4.77;101100.38;5058261;28;46410;-81
2022/08/12 13:05:35;;;;;;;;;4.00;4.00;;;;;54.82;5.85;101096.22;5053855;28;45451;-81
2022/08/12 13:08:02;;;;;;;;;6.00;5.00;;;;;55.11;5.34;101102.94;5061508;28;45308;-80